createdAt,value
2022-11-16T00:00:21.390Z,99.99
2022-11-16T00:01:21.411Z,99.99
2022-11-16T00:02:21.503Z,99.99
2022-11-16T00:03:21.374Z,99.99
2022-11-16T00:04:21.675Z,99.99
2022-11-16T00:05:27.040Z,99.99
2022-11-16T00:06:22.361Z,99.99
2022-11-16T00:07:21.390Z,99.99
2022-11-16T00:08:21.308Z,99.99
2022-11-16T00:09:21.349Z,99.99
2022-11-16T00:10:21.328Z,99.99
2022-11-16T00:11:21.510Z,99.99
2022-11-16T00:12:21.269Z,99.99
2022-11-16T00:13:21.271Z,99.99
2022-11-16T00:14:21.300Z,99.99
2022-11-16T00:15:21.250Z,99.99
2022-11-16T00:16:21.222Z,99.99
2022-11-16T00:17:21.210Z,99.99
2022-11-16T00:18:21.204Z,99.99
2022-11-16T00:19:21.242Z,99.99
2022-11-16T00:20:21.169Z,99.99
2022-11-16T00:21:21.175Z,99.99
2022-11-16T00:22:21.172Z,99.99
2022-11-16T00:23:21.153Z,99.99
2022-11-16T00:24:21.172Z,99.99
2022-11-16T00:25:21.116Z,99.99
2022-11-16T00:26:21.123Z,99.99
2022-11-16T00:27:21.092Z,99.99
2022-11-16T00:28:21.085Z,99.99
2022-11-16T00:29:21.081Z,99.99
2022-11-16T00:30:21.161Z,99.99
2022-11-16T00:31:21.072Z,99.99
2022-11-16T00:32:21.039Z,99.99
2022-11-16T00:33:21.033Z,99.99
2022-11-16T00:34:21.015Z,99.99
2022-11-16T00:35:21.121Z,99.99
2022-11-16T00:36:20.996Z,99.99
2022-11-16T00:37:20.973Z,99.99
2022-11-16T00:38:20.997Z,99.99
2022-11-16T00:39:20.999Z,99.99
2022-11-16T00:40:24.934Z,99.99
2022-11-16T00:41:20.945Z,99.99
2022-11-16T00:42:20.945Z,99.99
2022-11-16T00:43:20.913Z,99.99
2022-11-16T00:44:20.940Z,99.99
2022-11-16T00:45:20.889Z,99.99
2022-11-16T00:46:20.869Z,99.99
2022-11-16T00:47:20.858Z,99.99
2022-11-16T00:48:20.867Z,99.99
2022-11-16T00:49:21.578Z,99.99
2022-11-16T00:50:20.835Z,99.99
2022-11-16T00:51:20.816Z,99.99
2022-11-16T00:52:20.803Z,99.99
2022-11-16T00:53:20.798Z,99.99
2022-11-16T00:54:20.814Z,99.99
2022-11-16T00:55:20.788Z,99.99
2022-11-16T00:56:20.767Z,99.99
2022-11-16T00:57:20.757Z,99.99
2022-11-16T00:58:20.726Z,99.99
2022-11-16T00:59:20.730Z,99.99
2022-11-16T01:00:32.230Z,99.99
2022-11-16T01:01:20.788Z,99.99
2022-11-16T01:02:20.695Z,99.99
2022-11-16T01:03:20.681Z,99.99
2022-11-16T01:04:20.677Z,99.99
2022-11-16T01:05:20.657Z,99.99
2022-11-16T01:06:20.638Z,99.99
2022-11-16T01:07:20.711Z,99.99
2022-11-16T01:08:20.621Z,99.99
2022-11-16T01:09:20.598Z,99.99
2022-11-16T01:10:20.658Z,99.99
2022-11-16T01:11:20.583Z,99.99
2022-11-16T01:12:20.590Z,99.99
2022-11-16T01:13:20.576Z,99.99
2022-11-16T01:14:20.549Z,99.99
2022-11-16T01:15:20.532Z,99.99
2022-11-16T01:16:20.593Z,99.99
2022-11-16T01:17:20.527Z,99.99
2022-11-16T01:18:20.498Z,99.99
2022-11-16T01:19:20.526Z,99.99
2022-11-16T01:20:20.480Z,99.99
2022-11-16T01:21:20.469Z,99.99
2022-11-16T01:22:20.472Z,99.99
2022-11-16T01:23:20.483Z,99.99
2022-11-16T01:24:20.468Z,99.99
2022-11-16T01:25:20.412Z,99.99
2022-11-16T01:26:20.437Z,99.99
2022-11-16T01:27:20.410Z,99.99
2022-11-16T01:28:20.389Z,99.99
2022-11-16T01:29:20.401Z,99.99
2022-11-16T01:30:20.392Z,99.99
2022-11-16T01:31:20.352Z,99.99
2022-11-16T01:32:20.354Z,99.99
2022-11-16T01:33:20.360Z,99.99
2022-11-16T01:34:20.343Z,99.99
2022-11-16T01:35:20.325Z,99.99
2022-11-16T01:36:20.291Z,99.99
2022-11-16T01:37:20.299Z,99.99
2022-11-16T01:38:20.262Z,99.99
2022-11-16T01:39:20.328Z,99.99
2022-11-16T01:40:20.253Z,99.99
2022-11-16T01:41:20.254Z,99.99
2022-11-16T01:42:20.277Z,99.99
2022-11-16T01:43:20.227Z,99.99
2022-11-16T01:44:20.215Z,99.99
2022-11-16T01:45:20.194Z,99.99
2022-11-16T01:46:20.187Z,99.99
2022-11-16T01:47:20.179Z,99.99
2022-11-16T01:48:20.210Z,99.99
2022-11-16T01:49:20.153Z,99.99
2022-11-16T01:50:20.164Z,99.99
2022-11-16T01:51:20.124Z,99.99
2022-11-16T01:52:20.104Z,99.99
2022-11-16T01:53:20.115Z,99.99
2022-11-16T01:54:20.101Z,99.99
2022-11-16T01:55:20.074Z,99.99
2022-11-16T01:56:20.094Z,99.99
2022-11-16T01:57:20.055Z,99.99
2022-11-16T01:58:20.053Z,99.99
2022-11-16T01:59:20.045Z,99.99
2022-11-16T02:00:20.039Z,99.99
2022-11-16T02:01:20.083Z,99.99
2022-11-16T02:02:19.996Z,99.99
2022-11-16T02:03:20.015Z,99.99
2022-11-16T02:04:19.984Z,99.99
2022-11-16T02:05:20.010Z,99.99
2022-11-16T02:06:19.961Z,99.99
2022-11-16T02:07:19.987Z,99.99
2022-11-16T02:08:19.963Z,99.99
2022-11-16T02:09:19.919Z,99.99
2022-11-16T02:10:19.901Z,99.99
2022-11-16T02:11:19.884Z,99.99
2022-11-16T02:12:19.887Z,99.99
2022-11-16T02:13:19.877Z,99.99
2022-11-16T02:14:19.876Z,99.99
2022-11-16T02:15:19.837Z,99.99
2022-11-16T02:16:19.826Z,99.99
2022-11-16T02:17:19.819Z,99.99
2022-11-16T02:18:19.805Z,99.99
2022-11-16T02:19:19.816Z,99.99
2022-11-16T02:20:19.789Z,99.99
2022-11-16T02:21:19.767Z,99.99
2022-11-16T02:22:19.798Z,99.99
2022-11-16T02:23:19.747Z,99.99
2022-11-16T02:24:19.771Z,99.99
2022-11-16T02:25:19.724Z,99.99
2022-11-16T02:26:19.717Z,99.99
2022-11-16T02:27:19.719Z,99.99
2022-11-16T02:28:20.007Z,99.99
2022-11-16T02:29:19.979Z,99.99
2022-11-16T02:30:19.668Z,99.99
2022-11-16T02:31:19.683Z,99.99
2022-11-16T02:32:19.650Z,99.99
2022-11-16T02:33:19.643Z,99.99
2022-11-16T02:34:19.650Z,99.99
2022-11-16T02:35:19.608Z,99.99
2022-11-16T02:36:19.608Z,99.99
2022-11-16T02:37:19.598Z,99.99
2022-11-16T02:38:19.585Z,99.99
2022-11-16T02:39:19.587Z,99.99
2022-11-16T02:40:19.558Z,99.99
2022-11-16T02:41:19.542Z,99.99
2022-11-16T02:42:19.546Z,99.99
2022-11-16T02:43:19.533Z,99.99
2022-11-16T02:44:19.548Z,99.99
2022-11-16T02:45:19.499Z,99.99
2022-11-16T02:46:19.520Z,99.99
2022-11-16T02:47:19.470Z,99.99
2022-11-16T02:48:19.479Z,99.99
2022-11-16T02:49:19.499Z,99.99
2022-11-16T02:50:19.443Z,99.99
2022-11-16T02:51:19.439Z,99.99
2022-11-16T02:52:19.537Z,99.99
2022-11-16T02:53:19.431Z,99.99
2022-11-16T02:54:19.411Z,99.99
2022-11-16T02:55:19.419Z,99.99
2022-11-16T02:56:19.382Z,99.99
2022-11-16T02:57:19.405Z,99.99
2022-11-16T02:58:19.385Z,99.99
2022-11-16T02:59:19.343Z,99.99
2022-11-16T03:00:19.339Z,99.99
2022-11-16T03:01:19.357Z,99.99
2022-11-16T03:02:19.312Z,99.99
2022-11-16T03:03:19.303Z,99.99
2022-11-16T03:04:19.302Z,99.99
2022-11-16T03:05:19.282Z,99.99
2022-11-16T03:06:19.279Z,99.99
2022-11-16T03:07:19.296Z,99.99
2022-11-16T03:08:19.255Z,99.99
2022-11-16T03:09:19.251Z,99.99
2022-11-16T03:10:19.205Z,99.99
2022-11-16T03:11:19.226Z,99.99
2022-11-16T03:12:19.205Z,99.99
2022-11-16T03:13:19.193Z,99.99
2022-11-16T03:14:19.204Z,99.99
2022-11-16T03:15:19.175Z,99.99
2022-11-16T03:16:19.151Z,99.99
2022-11-16T03:17:19.160Z,99.99
2022-11-16T03:18:19.116Z,99.99
2022-11-16T03:19:19.135Z,99.99
2022-11-16T03:20:19.103Z,99.99
2022-11-16T03:21:19.084Z,99.99
2022-11-16T03:22:19.075Z,99.99
2022-11-16T03:23:19.085Z,99.99
2022-11-16T03:24:19.065Z,99.99
2022-11-16T03:25:19.048Z,99.99
2022-11-16T03:26:19.034Z,99.99
2022-11-16T03:27:19.041Z,99.99
2022-11-16T03:28:19.006Z,99.99
2022-11-16T03:29:19.269Z,99.99
2022-11-16T03:30:23.206Z,99.99
2022-11-16T03:31:18.990Z,99.99
2022-11-16T03:32:18.973Z,99.99
2022-11-16T03:33:18.975Z,99.99
2022-11-16T03:34:18.989Z,99.99
2022-11-16T03:35:18.957Z,99.99
2022-11-16T03:36:18.926Z,99.99
2022-11-16T03:37:18.907Z,99.99
2022-11-16T03:38:18.923Z,99.99
2022-11-16T03:39:18.898Z,99.99
2022-11-16T03:40:18.879Z,99.99
2022-11-16T03:41:18.871Z,99.99
2022-11-16T03:42:18.845Z,99.99
2022-11-16T03:43:18.857Z,99.99
2022-11-16T03:44:18.854Z,99.99
2022-11-16T03:45:18.817Z,99.99
2022-11-16T03:46:18.806Z,99.99
2022-11-16T03:47:18.790Z,99.99
2022-11-16T03:48:18.801Z,99.99
2022-11-16T03:49:18.806Z,99.99
2022-11-16T03:50:18.750Z,99.99
2022-11-16T03:51:18.738Z,99.99
2022-11-16T03:52:18.752Z,99.99
2022-11-16T03:53:18.748Z,99.99
2022-11-16T03:54:18.744Z,99.99
2022-11-16T03:55:18.702Z,99.99
2022-11-16T03:56:18.699Z,99.99
2022-11-16T03:57:18.721Z,99.99
2022-11-16T03:58:18.772Z,99.99
2022-11-16T03:59:18.697Z,99.99
2022-11-16T04:00:18.659Z,99.99
2022-11-16T04:01:18.697Z,99.99
2022-11-16T04:02:18.628Z,99.99
2022-11-16T04:03:18.650Z,99.99
2022-11-16T04:04:18.626Z,99.99
2022-11-16T04:05:18.591Z,99.99
2022-11-16T04:06:18.588Z,99.99
2022-11-16T04:07:18.648Z,99.99
2022-11-16T04:08:18.578Z,99.99
2022-11-16T04:09:18.578Z,99.99
2022-11-16T04:10:18.552Z,99.99
2022-11-16T04:11:18.522Z,99.99
2022-11-16T04:12:18.530Z,99.99
2022-11-16T04:13:18.503Z,99.99
2022-11-16T04:14:18.537Z,99.99
2022-11-16T04:15:18.492Z,99.99
2022-11-16T04:16:18.463Z,99.99
2022-11-16T04:17:18.457Z,99.99
2022-11-16T04:18:18.451Z,99.99
2022-11-16T04:19:18.458Z,99.99
2022-11-16T04:20:18.430Z,99.99
2022-11-16T04:21:18.421Z,99.99
2022-11-16T04:22:18.406Z,99.99
2022-11-16T04:23:18.413Z,99.99
2022-11-16T04:24:18.405Z,99.99
2022-11-16T04:25:18.371Z,99.99
2022-11-16T04:26:18.366Z,99.99
2022-11-16T04:27:18.353Z,99.99
2022-11-16T04:28:18.336Z,99.99
2022-11-16T04:29:18.345Z,99.99
2022-11-16T04:30:18.316Z,99.99
2022-11-16T04:31:18.300Z,99.99
2022-11-16T04:32:18.316Z,99.99
2022-11-16T04:33:18.294Z,99.99
2022-11-16T04:34:18.267Z,99.99
2022-11-16T04:35:18.264Z,99.99
2022-11-16T04:36:20.706Z,99.99
2022-11-16T04:37:18.216Z,99.99
2022-11-16T04:38:18.239Z,99.99
2022-11-16T04:39:18.211Z,99.99
2022-11-16T04:40:18.213Z,99.99
2022-11-16T04:41:18.176Z,99.99
2022-11-16T04:42:18.173Z,99.99
2022-11-16T04:43:18.183Z,99.99
2022-11-16T04:44:18.228Z,99.99
2022-11-16T04:45:18.129Z,99.99
2022-11-16T04:46:18.125Z,99.99
2022-11-16T04:47:18.119Z,99.99
2022-11-16T04:48:18.116Z,99.99
2022-11-16T04:49:18.126Z,99.99
2022-11-16T04:50:18.102Z,99.99
2022-11-16T04:51:18.058Z,99.99
2022-11-16T04:52:18.079Z,99.99
2022-11-16T04:53:18.038Z,99.99
2022-11-16T04:54:18.079Z,99.99
2022-11-16T04:55:18.047Z,99.99
2022-11-16T04:56:18.030Z,99.99
2022-11-16T04:57:17.997Z,99.99
2022-11-16T04:58:18.004Z,99.99
2022-11-16T04:59:18.029Z,99.99
2022-11-16T05:00:17.966Z,99.99
2022-11-16T05:01:18.009Z,99.99
2022-11-16T05:02:17.938Z,99.99
2022-11-16T05:03:17.950Z,99.99
2022-11-16T05:04:17.958Z,99.99
2022-11-16T05:05:17.942Z,99.99
2022-11-16T05:06:17.888Z,99.99
2022-11-16T05:07:17.928Z,99.99
2022-11-16T05:08:17.882Z,99.99
2022-11-16T05:09:17.878Z,99.99
2022-11-16T05:10:17.868Z,99.99
2022-11-16T05:11:17.842Z,99.99
2022-11-16T05:12:17.829Z,99.99
2022-11-16T05:13:17.852Z,99.99
2022-11-16T05:14:17.866Z,99.99
2022-11-16T05:15:18.038Z,99.99
2022-11-16T05:16:17.784Z,99.99
2022-11-16T05:17:17.780Z,99.99
2022-11-16T05:18:17.773Z,99.99
2022-11-16T05:19:17.780Z,99.99
2022-11-16T05:20:17.732Z,99.99
2022-11-16T05:21:17.742Z,99.99
2022-11-16T05:22:17.712Z,99.99
2022-11-16T05:23:17.725Z,99.99
2022-11-16T05:24:17.716Z,99.99
2022-11-16T05:25:17.683Z,99.99
2022-11-16T05:26:17.665Z,99.99
2022-11-16T05:27:17.661Z,99.99
2022-11-16T05:28:17.647Z,99.99
2022-11-16T05:29:17.638Z,99.99
2022-11-16T05:30:17.634Z,99.99
2022-11-16T05:31:17.626Z,99.99
2022-11-16T05:32:17.604Z,99.99
2022-11-16T05:33:17.615Z,99.99
2022-11-16T05:34:17.605Z,99.99
2022-11-16T05:35:17.612Z,99.99
2022-11-16T05:36:17.574Z,99.99
2022-11-16T05:37:17.798Z,99.99
2022-11-16T05:38:17.545Z,99.99
2022-11-16T05:39:17.551Z,99.99
2022-11-16T05:40:17.516Z,99.99
2022-11-16T05:41:17.498Z,99.99
2022-11-16T05:42:17.485Z,99.99
2022-11-16T05:43:17.486Z,99.99
2022-11-16T05:44:21.379Z,99.99
2022-11-16T05:45:21.014Z,99.99
2022-11-16T05:46:17.462Z,99.99
2022-11-16T05:47:17.434Z,99.99
2022-11-16T05:48:17.429Z,99.99
2022-11-16T05:49:17.395Z,99.99
2022-11-16T05:50:17.418Z,99.99
2022-11-16T05:51:17.375Z,99.99
2022-11-16T05:52:17.410Z,99.99
2022-11-16T05:53:17.372Z,99.99
2022-11-16T05:54:17.359Z,99.99
2022-11-16T05:55:17.392Z,99.99
2022-11-16T05:56:17.380Z,99.99
2022-11-16T05:57:17.297Z,99.99
2022-11-16T05:58:17.327Z,99.99
2022-11-16T05:59:17.298Z,99.99
2022-11-16T06:00:17.290Z,99.99
2022-11-16T06:01:17.344Z,99.99
2022-11-16T06:02:17.278Z,99.99
2022-11-16T06:03:17.278Z,99.99
2022-11-16T06:04:38.259Z,99.99
2022-11-16T06:05:17.288Z,99.99
2022-11-16T06:06:17.207Z,99.99
2022-11-16T06:07:17.274Z,99.99
2022-11-16T06:08:17.189Z,99.99
2022-11-16T06:09:17.194Z,99.99
2022-11-16T06:10:17.199Z,99.99
2022-11-16T06:11:17.152Z,99.99
2022-11-16T06:12:17.146Z,99.99
2022-11-16T06:13:17.166Z,99.99
2022-11-16T06:14:17.135Z,99.99
2022-11-16T06:15:18.864Z,99.99
2022-11-16T06:16:17.134Z,99.99
2022-11-16T06:17:17.070Z,99.99
2022-11-16T06:18:17.106Z,99.99
2022-11-16T06:19:17.070Z,99.99
2022-11-16T06:20:17.071Z,99.99
2022-11-16T06:21:17.036Z,99.99
2022-11-16T06:22:17.049Z,99.99
2022-11-16T06:23:17.019Z,99.99
2022-11-16T06:24:17.029Z,99.99
2022-11-16T06:25:17.009Z,99.99
2022-11-16T06:26:16.989Z,99.99
2022-11-16T06:27:16.960Z,99.99
2022-11-16T06:28:16.950Z,99.99
2022-11-16T06:29:16.939Z,99.99
2022-11-16T06:30:16.941Z,99.99
2022-11-16T06:31:16.910Z,99.99
2022-11-16T06:32:16.914Z,99.99
2022-11-16T06:33:16.901Z,99.99
2022-11-16T06:34:16.900Z,99.99
2022-11-16T06:35:16.874Z,99.99
2022-11-16T06:36:16.973Z,99.99
2022-11-16T06:37:16.852Z,99.29
2022-11-16T06:38:16.853Z,99.19
2022-11-16T06:39:16.852Z,98.99
2022-11-16T06:40:16.819Z,98.99
2022-11-16T06:41:16.816Z,97.71
2022-11-16T06:42:16.804Z,97.09
2022-11-16T06:43:16.783Z,96.89
2022-11-16T06:44:16.794Z,97.71
2022-11-16T06:45:16.761Z,96.58
2022-11-16T06:46:16.773Z,97.30
2022-11-16T06:47:16.777Z,97.81
2022-11-16T06:48:16.744Z,98.16
2022-11-16T06:49:16.723Z,97.86
2022-11-16T06:50:16.737Z,97.75
2022-11-16T06:51:16.685Z,97.75
2022-11-16T06:52:16.683Z,97.34
2022-11-16T06:53:16.694Z,98.16
2022-11-16T06:54:16.702Z,96.94
2022-11-16T06:55:16.656Z,96.94
2022-11-16T06:56:16.654Z,96.73
2022-11-16T06:57:16.620Z,97.04
2022-11-16T06:58:16.613Z,97.19
2022-11-16T06:59:16.653Z,97.49
2022-11-16T07:00:16.624Z,97.60
2022-11-16T07:01:16.635Z,97.60
2022-11-16T07:02:16.585Z,97.70
2022-11-16T07:03:16.564Z,97.85
2022-11-16T07:04:16.554Z,98.16
2022-11-16T07:05:16.564Z,98.57
2022-11-16T07:06:16.545Z,99.18
2022-11-16T07:07:16.588Z,99.99
2022-11-16T07:08:16.494Z,99.99
2022-11-16T07:09:16.485Z,99.99
2022-11-16T07:10:16.516Z,99.99
2022-11-16T07:11:16.464Z,99.99
2022-11-16T07:12:16.455Z,99.99
2022-11-16T07:13:16.465Z,99.99
2022-11-16T07:14:16.467Z,99.99
2022-11-16T07:15:16.473Z,99.99
2022-11-16T07:16:16.407Z,99.99
2022-11-16T07:17:16.424Z,99.99
2022-11-16T07:18:16.381Z,99.99
2022-11-16T07:19:16.388Z,99.99
2022-11-16T07:20:16.368Z,99.99
2022-11-16T07:21:16.366Z,99.99
2022-11-16T07:22:16.380Z,99.99
2022-11-16T07:23:16.346Z,99.99
2022-11-16T07:24:16.349Z,99.99
2022-11-16T07:25:16.319Z,99.99
2022-11-16T07:26:16.317Z,99.99
2022-11-16T07:27:16.308Z,99.99
2022-11-16T07:28:16.268Z,99.99
2022-11-16T07:29:16.289Z,99.99
2022-11-16T07:30:16.260Z,99.99
2022-11-16T07:31:16.247Z,99.99
2022-11-16T07:32:16.258Z,99.99
2022-11-16T07:33:16.234Z,99.99
2022-11-16T07:34:16.227Z,99.99
2022-11-16T07:35:16.198Z,99.99
2022-11-16T07:36:16.198Z,99.99
2022-11-16T07:37:16.200Z,99.99
2022-11-16T07:38:18.193Z,99.99
2022-11-16T07:39:16.148Z,99.99
2022-11-16T07:40:16.149Z,99.99
2022-11-16T07:41:16.149Z,99.99
2022-11-16T07:42:16.128Z,99.99
2022-11-16T07:43:16.099Z,99.99
2022-11-16T07:44:16.162Z,99.99
2022-11-16T07:45:16.189Z,99.99
2022-11-16T07:47:17.088Z,99.99
2022-11-16T07:48:16.075Z,99.99
2022-11-16T07:49:16.101Z,99.99
2022-11-16T07:50:16.083Z,99.99
2022-11-16T07:51:16.109Z,99.99
2022-11-16T07:52:16.091Z,99.99
2022-11-16T07:53:16.099Z,99.99
2022-11-16T07:54:15.988Z,99.99
2022-11-16T07:55:15.970Z,99.99
2022-11-16T07:56:15.988Z,99.99
2022-11-16T07:57:15.980Z,99.99
2022-11-16T07:58:15.957Z,99.99
2022-11-16T07:59:15.970Z,99.99
2022-11-16T08:00:15.921Z,99.99
2022-11-16T08:01:15.979Z,99.99
2022-11-16T08:02:15.950Z,99.99
2022-11-16T08:03:19.237Z,99.99
2022-11-16T08:04:16.871Z,99.99
2022-11-16T08:05:15.919Z,99.99
2022-11-16T08:06:15.959Z,99.99
2022-11-16T08:07:15.921Z,99.99
2022-11-16T08:08:15.845Z,99.99
2022-11-16T08:09:15.859Z,99.99
2022-11-16T08:10:15.881Z,99.99
2022-11-16T08:11:15.850Z,99.99
2022-11-16T08:12:15.781Z,99.99
2022-11-16T08:13:15.796Z,99.99
2022-11-16T08:14:15.767Z,99.99
2022-11-16T08:15:15.774Z,99.99
2022-11-16T08:16:15.851Z,99.99
2022-11-16T08:17:15.744Z,99.99
2022-11-16T08:18:15.744Z,99.99
2022-11-16T08:19:15.758Z,99.99
2022-11-16T08:20:15.693Z,99.99
2022-11-16T08:21:15.722Z,99.99
2022-11-16T08:22:15.693Z,99.99
2022-11-16T08:23:15.673Z,99.85
2022-11-16T08:24:15.644Z,99.75
2022-11-16T08:25:15.640Z,99.54
2022-11-16T08:26:15.786Z,99.50
2022-11-16T08:27:15.614Z,99.50
2022-11-16T08:28:15.713Z,99.40
2022-11-16T08:29:15.614Z,99.40
2022-11-16T08:30:15.583Z,99.09
2022-11-16T08:31:15.592Z,98.53
2022-11-16T08:32:15.557Z,98.22
2022-11-16T08:33:15.564Z,98.33
2022-11-16T08:34:15.557Z,98.43
2022-11-16T08:35:15.530Z,98.33
2022-11-16T08:36:15.626Z,98.28
2022-11-16T08:37:15.494Z,98.28
2022-11-16T08:38:15.503Z,98.28
2022-11-16T08:39:15.507Z,98.28
2022-11-16T08:40:15.491Z,98.18
2022-11-16T08:41:15.465Z,97.66
2022-11-16T08:42:15.445Z,97.05
2022-11-16T08:43:15.465Z,96.23
2022-11-16T08:44:15.437Z,96.03
2022-11-16T08:45:15.419Z,96.13
2022-11-16T08:46:15.537Z,96.13
2022-11-16T08:47:15.384Z,95.41
2022-11-16T08:48:15.394Z,95.31
2022-11-16T08:49:15.375Z,95.31
2022-11-16T08:50:15.634Z,95.51
2022-11-16T08:51:18.486Z,95.62
2022-11-16T08:52:15.333Z,95.31
2022-11-16T08:53:15.351Z,94.90
2022-11-16T08:54:15.306Z,94.49
2022-11-16T08:55:15.306Z,94.39
2022-11-16T08:56:15.302Z,94.39
2022-11-16T08:57:15.337Z,94.49
2022-11-16T08:58:15.271Z,94.59
2022-11-16T08:59:15.337Z,94.85
2022-11-16T09:00:15.262Z,94.65
2022-11-16T09:01:15.270Z,94.45
2022-11-16T09:02:15.322Z,94.65
2022-11-16T09:03:15.208Z,95.47
2022-11-16T09:04:15.187Z,95.47
2022-11-16T09:05:15.224Z,95.57
2022-11-16T09:06:15.218Z,94.24
2022-11-16T09:07:15.253Z,93.37
2022-11-16T09:08:15.148Z,92.71
2022-11-16T09:09:15.209Z,93.52
2022-11-16T09:10:15.117Z,93.84
2022-11-16T09:11:15.129Z,93.63
2022-11-16T09:12:15.098Z,93.43
2022-11-16T09:13:15.104Z,92.40
2022-11-16T09:14:15.090Z,92.71
2022-11-16T09:15:15.078Z,92.77
2022-11-16T09:16:15.049Z,92.56
2022-11-16T09:17:23.235Z,92.25
2022-11-16T09:18:15.048Z,92.46
2022-11-16T09:19:15.447Z,91.54
2022-11-16T09:20:15.011Z,91.33
2022-11-16T09:21:15.051Z,91.54
2022-11-16T09:22:15.008Z,91.13
2022-11-16T09:23:27.718Z,91.23
2022-11-16T09:24:15.292Z,91.54
2022-11-16T09:25:14.951Z,92.52
2022-11-16T09:26:14.991Z,92.21
2022-11-16T09:27:14.967Z,90.99
2022-11-16T09:28:17.461Z,90.06
2022-11-16T09:29:14.951Z,89.25
2022-11-16T09:30:14.880Z,88.94
2022-11-16T09:31:20.289Z,88.59
2022-11-16T09:32:15.871Z,89.11
2022-11-16T09:33:14.874Z,89.72
2022-11-16T09:34:14.871Z,89.31
2022-11-16T09:35:14.821Z,89.61
2022-11-16T09:36:15.092Z,89.51
2022-11-16T09:37:14.812Z,89.31
2022-11-16T09:38:20.716Z,89.61
2022-11-16T09:39:31.970Z,89.31
2022-11-16T09:40:15.803Z,89.31
2022-11-16T09:41:14.772Z,88.59
2022-11-16T09:42:14.773Z,88.59
2022-11-16T09:43:14.754Z,88.39
2022-11-16T09:44:14.818Z,88.29
2022-11-16T09:45:14.725Z,88.04
2022-11-16T09:46:14.715Z,88.14
2022-11-16T09:47:14.725Z,88.65
2022-11-16T09:48:14.709Z,88.55
2022-11-16T09:49:17.618Z,88.65
2022-11-16T09:50:14.683Z,89.17
2022-11-16T09:51:14.693Z,89.58
2022-11-16T09:52:14.663Z,89.78
2022-11-16T09:53:14.626Z,89.88
2022-11-16T09:54:14.613Z,89.98
2022-11-16T09:55:16.202Z,90.19
2022-11-16T09:56:20.655Z,90.33
2022-11-16T09:57:15.586Z,90.39
2022-11-16T09:58:14.574Z,90.08
2022-11-16T09:59:18.144Z,89.78
2022-11-16T10:00:14.717Z,89.98
2022-11-16T10:01:14.567Z,90.19
2022-11-16T10:02:14.616Z,90.70
2022-11-16T10:03:14.505Z,90.70
2022-11-16T10:04:14.516Z,90.80
2022-11-16T10:05:14.527Z,90.59
2022-11-16T10:06:14.475Z,90.29
2022-11-16T10:07:14.532Z,90.59
2022-11-16T10:08:14.463Z,90.29
2022-11-16T10:09:14.559Z,90.49
2022-11-16T10:10:16.376Z,89.98
2022-11-16T10:11:14.448Z,90.45
2022-11-16T10:12:14.439Z,91.20
2022-11-16T10:13:14.418Z,90.59
2022-11-16T10:14:18.332Z,90.39
2022-11-16T10:15:14.386Z,90.45
2022-11-16T10:16:14.378Z,90.25
2022-11-16T10:17:14.385Z,91.06
2022-11-16T10:18:14.675Z,90.66
2022-11-16T10:19:14.385Z,90.75
2022-11-16T10:20:14.326Z,90.14
2022-11-16T10:21:14.348Z,89.12
2022-11-16T10:22:14.366Z,88.92
2022-11-16T10:23:14.316Z,88.82
2022-11-16T10:24:19.065Z,89.23
2022-11-16T10:25:14.325Z,88.67
2022-11-16T10:26:14.322Z,88.37
2022-11-16T10:27:20.762Z,87.96
2022-11-16T10:28:16.081Z,87.85
2022-11-16T10:29:14.260Z,88.98
2022-11-16T10:30:14.213Z,89.18
2022-11-16T10:31:14.221Z,89.59
2022-11-16T10:32:14.196Z,89.79
2022-11-16T10:33:14.212Z,90.10
2022-11-16T10:34:14.171Z,89.49
2022-11-16T10:35:14.157Z,88.98
2022-11-16T10:36:14.152Z,89.18
2022-11-16T10:37:14.174Z,90.00
2022-11-16T10:38:14.156Z,91.12
2022-11-16T10:39:14.121Z,91.94
2022-11-16T10:40:14.144Z,91.43
2022-11-16T10:41:14.082Z,89.28
2022-11-16T10:42:14.074Z,89.28
2022-11-16T10:43:14.081Z,89.69
2022-11-16T10:44:14.074Z,89.90
2022-11-16T10:45:14.052Z,89.08
2022-11-16T10:46:14.041Z,88.37
2022-11-16T10:47:14.059Z,88.78
2022-11-16T10:48:14.135Z,89.18
2022-11-16T10:49:13.996Z,89.08
2022-11-16T10:50:14.013Z,88.47
2022-11-16T10:51:13.982Z,88.02
2022-11-16T10:52:13.973Z,87.51
2022-11-16T10:53:13.995Z,87.10
2022-11-16T10:54:13.933Z,87.30
2022-11-16T10:55:13.941Z,87.06
2022-11-16T10:56:13.935Z,86.86
2022-11-16T10:57:13.975Z,86.55
2022-11-16T10:58:14.003Z,84.82
2022-11-16T10:59:13.925Z,85.33
2022-11-16T11:00:17.128Z,84.00
2022-11-16T11:01:14.945Z,84.06
2022-11-16T11:02:13.902Z,84.47
2022-11-16T11:03:13.853Z,84.37
2022-11-16T11:04:13.842Z,84.88
2022-11-16T11:05:13.824Z,85.28
2022-11-16T11:06:13.826Z,85.49
2022-11-16T11:07:13.903Z,86.10
2022-11-16T11:08:13.865Z,86.61
2022-11-16T11:09:13.796Z,86.61
2022-11-16T11:10:13.790Z,85.08
2022-11-16T11:11:13.755Z,83.86
2022-11-16T11:12:13.745Z,83.96
2022-11-16T11:13:13.816Z,83.04
2022-11-16T11:14:13.783Z,83.31
2022-11-16T11:15:13.725Z,84.03
2022-11-16T11:16:13.716Z,84.94
2022-11-16T11:17:14.667Z,82.70
2022-11-16T11:18:13.756Z,83.21
2022-11-16T11:19:13.694Z,83.21
2022-11-16T11:20:13.694Z,82.80
2022-11-16T11:21:13.636Z,82.90
2022-11-16T11:22:13.637Z,82.90
2022-11-16T11:23:13.638Z,83.42
2022-11-16T11:24:42.892Z,83.82
2022-11-16T11:25:14.607Z,84.50
2022-11-16T11:26:13.607Z,84.09
2022-11-16T11:27:13.591Z,83.07
2022-11-16T11:28:13.629Z,81.17
2022-11-16T11:29:13.607Z,81.44
2022-11-16T11:30:13.587Z,80.93
2022-11-16T11:31:13.537Z,80.93
2022-11-16T11:32:18.024Z,82.97
2022-11-16T11:33:14.524Z,80.83
2022-11-16T11:34:13.619Z,79.20
2022-11-16T11:35:13.793Z,78.83
2022-11-16T11:36:13.509Z,78.69
2022-11-16T11:37:13.520Z,79.20
2022-11-16T11:38:13.459Z,78.69
2022-11-16T11:39:13.560Z,78.19
2022-11-16T11:40:13.439Z,78.89
2022-11-16T11:41:13.467Z,79.00
2022-11-16T11:42:13.438Z,78.89
2022-11-16T11:43:18.667Z,78.59
2022-11-16T11:44:14.411Z,78.69
2022-11-16T11:45:13.416Z,79.00
2022-11-16T11:46:13.381Z,79.10
2022-11-16T11:48:14.349Z,77.74
2022-11-16T11:49:13.368Z,77.44
2022-11-16T11:50:13.324Z,79.06
2022-11-16T11:51:13.338Z,78.01
2022-11-16T11:52:13.306Z,76.89
2022-11-16T11:53:13.367Z,77.40
2022-11-16T11:54:13.291Z,77.40
2022-11-16T11:55:13.272Z,77.74
2022-11-16T11:56:13.261Z,78.76
2022-11-16T11:57:13.365Z,77.23
2022-11-16T11:58:13.252Z,76.82
2022-11-16T11:59:13.252Z,77.94
2022-11-16T12:00:13.305Z,77.57
2022-11-16T12:01:13.211Z,77.87
2022-11-16T12:02:13.204Z,78.08
2022-11-16T12:03:14.170Z,78.80
2022-11-16T12:04:13.218Z,78.19
2022-11-16T12:05:13.154Z,78.08
2022-11-16T12:06:13.151Z,78.08
2022-11-16T12:07:13.177Z,77.17
2022-11-16T12:08:13.133Z,77.74
2022-11-16T12:09:13.133Z,77.84
2022-11-16T12:10:13.133Z,80.29
2022-11-16T12:11:13.092Z,79.30
2022-11-16T12:12:14.786Z,78.89
2022-11-16T12:13:13.082Z,79.00
2022-11-16T12:14:13.271Z,78.69
2022-11-16T12:15:13.060Z,78.80
2022-11-16T12:16:13.058Z,78.89
2022-11-16T12:17:13.036Z,79.81
2022-11-16T12:18:13.034Z,80.02
2022-11-16T12:19:13.064Z,79.71
2022-11-16T12:20:13.029Z,79.00
2022-11-16T12:21:12.982Z,77.87
2022-11-16T12:22:12.986Z,77.78
2022-11-16T12:23:12.967Z,78.08
2022-11-16T12:24:12.963Z,77.37
2022-11-16T12:25:12.955Z,77.26
2022-11-16T12:26:12.951Z,77.26
2022-11-16T12:27:12.920Z,77.17
2022-11-16T12:28:12.935Z,77.17
2022-11-16T12:29:12.905Z,77.94
2022-11-16T12:30:12.954Z,77.33
2022-11-16T12:31:12.879Z,77.13
2022-11-16T12:32:12.866Z,77.13
2022-11-16T12:33:12.876Z,76.62
2022-11-16T12:34:12.839Z,76.72
2022-11-16T12:35:12.872Z,76.82
2022-11-16T12:36:12.815Z,77.03
2022-11-16T12:37:12.824Z,77.60
2022-11-16T12:38:12.814Z,77.09
2022-11-16T12:39:12.815Z,77.40
2022-11-16T12:40:12.877Z,78.72
2022-11-16T12:41:12.760Z,79.43
2022-11-16T12:42:12.761Z,78.82
2022-11-16T12:43:12.759Z,78.92
2022-11-16T12:44:12.728Z,78.21
2022-11-16T12:45:12.729Z,78.21
2022-11-16T12:46:12.711Z,78.11
2022-11-16T12:47:12.689Z,78.38
2022-11-16T12:48:12.699Z,77.67
2022-11-16T12:49:12.699Z,77.36
2022-11-16T12:50:12.741Z,77.77
2022-11-16T12:51:12.668Z,76.89
2022-11-16T12:52:12.624Z,76.75
2022-11-16T12:53:12.641Z,77.06
2022-11-16T12:54:12.612Z,76.75